Time;durP1;ratioP1;P1;durP2;ratioP2;P2;SDS_P1;SDS_P2;PMS_P1;PMS_P2;Temp;Humidity;BMP_temperature;BMP_pressure;BME280_temperature;BME280_humidity;BME280_pressure;Samples;Min_cycle;Max_cycle;Signal;HPM_P1;HPM_P2
2020/12/24 00:00:18;;;;;;;1.77;1.65;;;13.60;80.40;;;13.56;61.42;94441.91;5074653;28;20209;-81
2020/12/24 00:02:45;;;;;;;1.95;1.75;;;13.80;80.40;;;13.56;61.36;94428.72;5074546;28;20190;-79
2020/12/24 00:05:13;;;;;;;2.58;1.48;;;13.80;80.20;;;13.63;61.32;94433.91;5073984;28;20705;-79
2020/12/24 00:07:41;;;;;;;1.85;1.67;;;13.90;80.10;;;13.60;60.98;94425.44;5056853;28;20202;-79
2020/12/24 00:10:09;;;;;;;2.10;1.90;;;13.90;79.90;;;13.63;61.18;94439.19;5057963;28;20583;-80
2020/12/24 00:12:37;;;;;;;1.80;1.70;;;13.90;79.70;;;13.63;61.13;94432.06;5072596;28;20186;-79
2020/12/24 00:15:09;;;;;;;2.00;1.73;;;14.00;79.90;;;13.67;61.33;94427.16;5058184;28;20227;-79
2020/12/24 00:17:36;;;;;;;1.60;1.50;;;14.00;79.60;;;13.66;60.95;94433.47;5089037;28;20209;-81
2020/12/24 00:20:06;;;;;;;2.40;2.00;;;14.00;79.60;;;13.63;60.71;94433.91;5078259;28;20219;-80
2020/12/24 00:22:33;;;;;;;1.80;1.70;;;14.10;79.50;;;13.58;61.04;94424.03;5078760;28;20209;-81
2020/12/24 00:25:00;;;;;;;2.08;1.80;;;14.10;79.50;;;13.60;61.02;94430.69;5094615;28;20300;-80
2020/12/24 00:27:27;;;;;;;2.00;1.80;;;14.00;79.30;;;13.60;60.70;94437.81;5096604;28;20182;-80
2020/12/24 00:29:54;;;;;;;2.00;1.80;;;14.00;79.30;;;13.59;60.91;94433.56;5077694;28;20323;-81
2020/12/24 00:32:21;;;;;;;2.90;1.60;;;14.00;79.40;;;13.59;61.35;94441.47;5061605;28;20651;-82
2020/12/24 00:34:48;;;;;;;2.60;1.90;;;14.00;79.50;;;13.60;60.64;94433.31;5078011;28;20214;-82
2020/12/24 00:37:15;;;;;;;2.45;2.00;;;14.00;79.40;;;13.57;60.90;94448.78;5074206;28;20194;-82
2020/12/24 00:39:42;;;;;;;2.97;2.10;;;14.00;79.30;;;13.54;60.93;94436.84;5067345;28;20222;-79
2020/12/24 00:42:08;;;;;;;2.13;1.90;;;14.00;79.30;;;13.59;60.81;94441.47;5074442;28;20230;-80
2020/12/24 00:44:35;;;;;;;2.35;1.90;;;14.00;79.20;;;13.59;61.02;94439.63;5074435;28;20287;-80
2020/12/24 00:47:02;;;;;;;1.95;1.83;;;14.10;79.40;;;13.59;60.96;94436.19;5075588;28;20240;-79
2020/12/24 00:49:29;;;;;;;2.22;2.00;;;14.00;79.30;;;13.62;61.22;94435.75;5094509;28;20283;-79
2020/12/24 00:51:56;;;;;;;1.85;1.67;;;14.10;79.40;;;13.61;61.19;94434.94;5061478;28;20201;-80
2020/12/24 00:54:22;;;;;;;2.05;1.88;;;14.00;79.50;;;13.60;61.22;94445.72;5094548;28;20688;-81
2020/12/24 00:56:50;;;;;;;2.10;1.90;;;14.00;79.30;;;13.58;61.48;94445.91;5060943;28;20198;-79
2020/12/24 00:59:20;;;;;;;1.98;1.80;;;14.00;79.40;;;13.56;61.59;94444.53;5077400;28;20301;-80
2020/12/24 01:01:48;;;;;;;1.88;1.77;;;14.10;79.50;;;13.55;61.48;94448.19;5077766;28;20533;-80
2020/12/24 01:04:15;;;;;;;2.03;1.67;;;14.00;79.40;;;13.54;61.35;94428.16;5077574;28;20226;-80
2020/12/24 01:06:41;;;;;;;1.88;1.60;;;13.90;79.30;;;13.53;61.37;94429.97;5073831;28;20206;-80
2020/12/24 01:09:10;;;;;;;2.03;1.80;;;13.90;79.40;;;13.50;61.33;94419.06;5057882;28;20238;-82
2020/12/24 01:11:37;;;;;;;1.90;1.70;;;13.90;79.40;;;13.52;61.48;94417.81;5077053;28;20288;-82
2020/12/24 01:14:03;;;;;;;2.00;1.80;;;13.90;79.40;;;13.51;61.83;94426.78;5073875;28;20219;-80
2020/12/24 01:16:30;;;;;;;2.25;1.80;;;13.90;80.20;;;13.48;61.29;94429.03;5059165;28;20267;-80
2020/12/24 01:18:59;;;;;;;2.20;1.60;;;13.90;79.40;;;13.44;61.65;94428.69;5077381;28;20230;-82
2020/12/24 01:21:29;;;;;;;2.00;1.80;;;13.90;79.40;;;13.42;61.50;94436.78;5069057;28;20269;-82
2020/12/24 01:23:56;;;;;;;2.20;1.98;;;13.90;79.40;;;13.39;61.64;94431.16;5068790;28;20205;-82
2020/12/24 01:26:23;;;;;;;2.97;1.80;;;13.90;79.40;;;13.36;61.55;94411.31;5077104;28;20198;-80
2020/12/24 01:28:49;;;;;;;2.00;1.80;;;13.80;79.30;;;13.35;61.69;94414.97;5076561;28;20692;-80
2020/12/24 01:31:16;;;;;;;1.65;1.55;;;13.80;79.30;;;13.31;61.54;94397.22;5077291;28;20201;-80
2020/12/24 01:33:43;;;;;;;2.00;1.83;;;13.80;79.30;;;13.23;61.57;94407.00;5059559;28;20571;-81
2020/12/24 01:36:10;;;;;;;1.60;1.50;;;13.70;79.20;;;13.12;61.59;94398.03;5076499;28;20198;-80
2020/12/24 01:38:40;;;;;;;1.50;1.40;;;13.70;79.20;;;13.08;61.79;94398.66;5077346;28;20208;-79
2020/12/24 01:41:07;;;;;;;2.60;1.52;;;13.70;79.20;;;13.01;61.87;94388.22;5046963;28;20211;-80
2020/12/24 01:43:34;;;;;;;1.90;1.70;;;13.60;79.20;;;12.97;61.74;94387.03;5085714;28;20203;-80
2020/12/24 01:46:02;;;;;;;1.60;1.50;;;13.50;79.10;;;12.90;62.01;94381.88;5056940;28;20722;-80
2020/12/24 01:48:29;;;;;;;1.45;1.35;;;13.50;79.10;;;12.84;61.79;94392.44;5091307;28;20246;-79
2020/12/24 01:50:56;;;;;;;1.75;1.50;;;13.40;79.20;;;12.79;61.92;94385.19;5061458;28;20311;-80
2020/12/24 01:53:24;;;;;;;1.80;1.70;;;13.40;79.30;;;12.68;61.91;94372.78;5076770;28;20764;-80
2020/12/24 01:55:55;;;;;;;1.65;1.55;;;13.30;79.20;;;12.62;61.97;94364.75;5072958;28;20223;-80
2020/12/24 01:58:24;;;;;;;1.60;1.50;;;13.30;79.30;;;12.62;62.07;94348.94;5056793;28;20202;-79
2020/12/24 02:00:51;;;;;;;1.40;1.30;;;13.20;79.30;;;12.56;62.28;94349.00;5040139;28;20214;-79
2020/12/24 02:03:18;;;;;;;1.60;1.50;;;13.30;79.40;;;12.51;62.26;94354.91;5056546;28;20183;-80
2020/12/24 02:05:45;;;;;;;1.42;1.33;;;13.10;79.30;;;12.45;62.57;94355.78;5054050;28;20217;-82
2020/12/24 02:08:15;;;;;;;1.77;1.67;;;13.10;79.40;;;12.40;62.46;94364.34;5076161;28;20218;-82
2020/12/24 02:10:42;;;;;;;1.60;1.50;;;13.00;79.40;;;12.35;62.36;94356.28;5056005;28;20218;-81
2020/12/24 02:13:09;;;;;;;1.50;1.40;;;13.00;79.50;;;12.27;62.58;94341.59;5093624;28;20209;-81
2020/12/24 02:15:36;;;;;;;1.60;1.50;;;12.90;79.50;;;12.29;62.64;94336.13;5055031;28;20219;-82
2020/12/24 02:18:03;;;;;;;2.17;1.50;;;12.90;79.60;;;12.30;62.85;94335.09;5056096;28;20202;-81
2020/12/24 02:20:30;;;;;;;1.85;1.70;;;12.80;79.70;;;12.27;62.68;94340.81;5073521;28;20276;-81
2020/12/24 02:22:57;;;;;;;1.63;1.52;;;12.80;79.70;;;12.23;62.51;94343.06;5089998;28;20190;-81
2020/12/24 02:25:26;;;;;;;2.30;1.70;;;12.80;79.70;;;12.15;62.92;94328.34;5076375;28;20705;-82
2020/12/24 02:27:52;;;;;;;1.40;1.30;;;12.80;79.80;;;12.16;62.82;94329.97;5076235;28;20640;-82
2020/12/24 02:30:20;;;;;;;1.65;1.40;;;12.80;79.80;;;12.14;63.04;94325.94;5058586;28;20707;-82
2020/12/24 02:32:46;;;;;;;1.63;1.52;;;12.70;79.80;;;12.13;62.94;94330.41;5075564;28;20202;-81
2020/12/24 02:35:13;;;;;;;1.75;1.50;;;12.70;79.90;;;12.12;62.94;94326.16;5091724;28;20676;-81
2020/12/24 02:37:40;;;;;;;1.73;1.40;;;12.70;80.70;;;12.10;62.98;94330.81;5075918;28;20629;-82
2020/12/24 02:40:07;;;;;;;1.73;1.63;;;12.60;79.90;;;12.10;62.84;94340.53;5075812;28;20210;-82
2020/12/24 02:42:33;;;;;;;1.50;1.40;;;12.70;80.00;;;12.07;63.16;94335.69;5067545;28;20344;-81
2020/12/24 02:45:00;;;;;;;1.50;1.30;;;12.60;79.90;;;12.06;62.97;94329.66;5058704;28;20573;-82
2020/12/24 02:47:27;;;;;;;1.33;1.23;;;12.60;79.90;;;12.04;62.98;94325.63;5071623;28;20604;-81
2020/12/24 02:49:58;;;;;;;1.50;1.40;;;12.60;79.90;;;12.00;62.99;94327.88;5055967;28;20605;-81
2020/12/24 02:52:26;;;;;;;1.30;1.20;;;12.50;79.90;;;11.96;63.00;94332.75;5055754;28;20202;-82
2020/12/24 02:54:52;;;;;;;1.40;1.30;;;12.50;80.00;;;11.96;63.07;94337.16;5055250;28;20561;-82
2020/12/24 02:57:19;;;;;;;1.40;1.30;;;12.50;80.00;;;11.96;63.30;94334.53;5056105;28;20664;-82
2020/12/24 03:00:09;;;;;;;2.63;1.35;;;12.50;80.10;;;11.95;63.13;94343.44;5059550;28;20218;-82
2020/12/24 03:02:40;;;;;;;1.38;1.25;;;12.50;80.30;;;11.97;63.27;94344.91;5071320;28;20233;-82
2020/12/24 03:05:08;;;;;;;1.40;1.30;;;12.50;80.30;;;11.98;63.42;94341.22;5075588;28;20218;-82
2020/12/24 03:07:36;;;;;;;1.48;1.38;;;12.50;80.40;;;12.05;63.34;94343.00;5058738;28;20243;-82
2020/12/24 03:10:07;;;;;;;1.60;1.50;;;12.50;80.40;;;12.07;63.47;94344.41;5075383;28;20655;-81
2020/12/24 03:12:34;;;;;;;1.75;1.42;;;12.50;80.50;;;12.12;63.37;94351.63;5092695;28;20194;-82
2020/12/24 03:15:01;;;;;;;1.52;1.42;;;12.50;80.50;;;12.16;63.27;94332.59;5074791;28;20206;-82
2020/12/24 03:17:28;;;;;;;1.30;1.20;;;12.60;80.60;;;12.18;63.35;94329.72;5066038;28;20654;-82
2020/12/24 03:20:14;;;;;;;1.55;1.30;;;12.60;80.60;;;12.22;63.78;94319.59;5074051;28;20568;-82
2020/12/24 03:22:40;;;;;;;1.40;1.30;;;12.60;80.60;;;12.23;63.37;94319.41;5060125;28;20710;-82
2020/12/24 03:25:09;;;;;;;1.42;1.33;;;12.60;80.50;;;12.29;63.00;94320.34;5080080;28;20221;-81
2020/12/24 03:27:36;;;;;;;1.38;1.27;;;12.60;80.50;;;12.30;63.04;94324.56;5073918;28;20203;-80
2020/12/24 03:30:05;;;;;;;1.60;1.50;;;12.70;80.50;;;12.29;62.91;94315.91;5070858;28;20226;-82
2020/12/24 03:32:33;;;;;;;2.15;1.40;;;12.80;80.50;;;12.31;63.14;94320.94;5067714;28;20198;-81
2020/12/24 03:35:00;;;;;;;1.38;1.27;;;12.70;80.40;;;12.30;63.13;94325.41;5056941;28;20222;-82
2020/12/24 03:37:27;;;;;;;1.33;1.23;;;12.70;80.40;;;12.28;63.14;94318.72;5070387;28;20237;-82
2020/12/24 03:39:54;;;;;;;1.70;1.60;;;12.80;80.40;;;12.30;62.95;94316.69;5082514;28;20222;-82
2020/12/24 03:42:20;;;;;;;1.60;1.42;;;12.80;80.40;;;12.31;63.12;94310.41;5049768;28;20628;-82
2020/12/24 03:44:47;;;;;;;1.40;1.30;;;12.70;80.30;;;12.25;63.19;94306.81;5067896;28;20638;-81
2020/12/24 03:47:14;;;;;;;1.50;1.40;;;12.80;80.30;;;12.30;63.17;94312.25;5064841;28;20578;-81
2020/12/24 03:49:41;;;;;;;1.70;1.60;;;12.80;80.30;;;12.27;63.21;94306.63;5071083;28;20227;-81
2020/12/24 03:52:08;;;;;;;1.80;1.70;;;12.80;80.40;;;12.28;63.18;94303.75;5082058;28;20207;-82
2020/12/24 03:54:35;;;;;;;1.73;1.60;;;12.80;80.30;;;12.27;63.25;94293.47;5063160;28;20711;-82
2020/12/24 03:57:02;;;;;;;1.55;1.45;;;12.70;80.20;;;12.21;63.15;94287.25;5069070;28;20247;-82
2020/12/24 03:59:29;;;;;;;2.38;1.45;;;12.70;80.30;;;12.24;63.10;94299.16;5070485;28;20222;-81
2020/12/24 04:01:56;;;;;;;1.50;1.40;;;12.80;80.40;;;12.16;63.56;94293.16;5075424;28;20201;-81
2020/12/24 04:04:23;;;;;;;1.60;1.40;;;12.70;80.20;;;12.16;63.46;94282.63;5081129;28;20214;-81
2020/12/24 04:06:50;;;;;;;1.40;1.30;;;12.80;80.30;;;12.16;63.25;94295.78;5052208;28;20202;-80
2020/12/24 04:09:17;;;;;;;1.63;1.50;;;12.80;80.40;;;12.16;63.13;94293.16;5053360;28;20233;-81
2020/12/24 04:11:44;;;;;;;1.33;1.27;;;12.70;80.30;;;12.17;63.16;94291.34;5063316;28;20214;-81
2020/12/24 04:14:12;;;;;;;1.40;1.30;;;12.70;80.20;;;12.12;63.51;94280.66;5069558;28;20305;-82
2020/12/24 04:16:38;;;;;;;1.48;1.38;;;12.70;80.20;;;12.16;63.12;94290.53;5086668;28;20277;-81
2020/12/24 04:19:05;;;;;;;1.52;1.25;;;12.70;80.20;;;12.15;62.63;94288.13;5084831;28;20221;-81
2020/12/24 04:21:32;;;;;;;1.50;1.40;;;12.60;80.10;;;12.09;63.09;94284.53;5070962;28;20236;-81
2020/12/24 04:23:59;;;;;;;1.60;1.50;;;12.70;80.20;;;12.13;62.91;94292.78;5083022;28;20288;-81
2020/12/24 04:26:26;;;;;;;1.48;1.35;;;12.70;80.10;;;12.13;63.08;94288.34;5070539;28;20293;-81
2020/12/24 04:28:53;;;;;;;1.25;1.15;;;12.70;80.00;;;12.08;62.69;94288.16;5072148;28;20856;-81
2020/12/24 04:31:20;;;;;;;1.92;1.23;;;12.70;79.90;;;12.13;62.73;94282.25;5054495;28;20285;-82
2020/12/24 04:33:47;;;;;;;1.40;1.30;;;12.60;79.80;;;12.11;62.48;94285.13;5072715;28;20301;-81
2020/12/24 04:36:15;;;;;;;1.55;1.35;;;12.60;79.70;;;12.12;62.48;94284.09;5062690;28;20260;-80
2020/12/24 04:38:44;;;;;;;1.20;1.10;;;12.60;79.70;;;12.11;62.12;94287.75;5069487;28;20198;-81
2020/12/24 04:41:11;;;;;;;1.13;1.13;;;12.70;79.70;;;12.09;62.33;94289.78;5054352;28;20191;-81
2020/12/24 04:43:39;;;;;;;1.30;1.20;;;12.70;79.70;;;12.04;62.45;94284.38;5069402;28;20197;-81
2020/12/24 04:46:07;;;;;;;1.58;1.40;;;12.60;79.60;;;12.00;61.93;94294.50;5072238;28;20210;-80
2020/12/24 04:48:35;;;;;;;1.30;1.20;;;12.60;79.40;;;12.00;62.26;94278.75;5053963;28;20221;-80
2020/12/24 04:51:18;;;;;;;1.63;1.40;;;12.50;79.40;;;12.00;62.03;94280.56;5071476;28;20640;-81
2020/12/24 04:53:45;;;;;;;1.33;1.23;;;12.60;79.30;;;12.00;62.40;94270.06;5083231;28;20190;-82
2020/12/24 04:56:12;;;;;;;1.27;1.17;;;12.60;79.50;;;12.05;62.25;94274.66;5054252;28;20202;-79
2020/12/24 04:58:43;;;;;;;1.27;1.17;;;12.50;79.40;;;12.03;62.19;94274.09;5073401;28;20644;-78
2020/12/24 05:01:19;;;;;;;1.50;1.27;;;12.60;79.50;;;12.00;62.23;94270.06;5079299;28;20290;-79
2020/12/24 05:03:47;;;;;;;1.30;1.20;;;12.50;79.40;;;11.98;62.12;94267.63;5076478;28;20610;-82
2020/12/24 05:06:16;;;;;;;1.20;1.10;;;12.50;79.30;;;11.99;62.09;94274.50;5077783;28;20202;-81
2020/12/24 05:08:57;;;;;;;1.23;1.15;;;12.50;79.40;;;11.96;62.12;94266.22;5077314;28;20603;-81
2020/12/24 05:11:29;;;;;;;1.50;1.40;;;12.50;80.10;;;11.96;62.16;94267.06;5077528;28;20209;-81
2020/12/24 05:14:16;;;;;;;1.17;1.17;;;12.50;79.30;;;11.94;62.13;94270.91;5059247;28;20267;-81
2020/12/24 05:17:00;;;;;;;1.63;1.52;;;12.50;79.30;;;11.93;62.05;94269.28;5074071;28;20459;-82
2020/12/24 05:19:34;;;;;;;1.30;1.20;;;12.50;79.20;;;11.92;62.19;94270.31;5051686;28;20214;-81
2020/12/24 05:22:17;;;;;;;1.30;1.20;;;12.40;79.20;;;11.91;62.21;94269.47;5076781;28;20270;-82
2020/12/24 05:24:44;;;;;;;4.53;2.22;;;12.40;79.30;;;11.90;62.30;94265.28;5077213;28;20221;-83
2020/12/24 05:27:15;;;;;;;3.83;2.63;;;12.50;79.50;;;11.91;62.41;94268.69;5073880;28;20333;-82
2020/12/24 05:29:44;;;;;;;2.70;2.10;;;12.40;79.40;;;11.88;62.26;94269.94;5073886;28;20222;-80
2020/12/24 05:32:11;;;;;;;1.42;1.33;;;12.40;79.30;;;11.90;62.35;94274.97;5073866;28;20221;-80
2020/12/24 05:34:40;;;;;;;3.53;1.58;;;12.50;79.50;;;11.83;62.31;94280.28;5073953;28;20206;-82
2020/12/24 05:37:18;;;;;;;1.50;1.40;;;12.40;79.40;;;11.87;62.26;94283.28;5088061;28;20200;-81
2020/12/24 05:39:47;;;;;;;2.10;1.50;;;12.40;80.20;;;11.82;62.46;94276.84;5093804;28;20612;-82
2020/12/24 05:42:14;;;;;;;1.83;1.50;;;12.30;79.40;;;11.81;62.43;94275.22;5076595;28;20259;-81
2020/12/24 05:44:41;;;;;;;1.35;1.25;;;12.30;79.40;;;11.80;62.44;94284.16;5059991;28;20229;-80
2020/12/24 05:47:08;;;;;;;1.45;1.38;;;12.30;79.50;;;11.74;62.52;94273.69;5077082;28;20229;-81
2020/12/24 05:49:36;;;;;;;1.33;1.20;;;12.30;79.50;;;11.77;62.40;94281.94;5077002;28;20233;-81
2020/12/24 05:52:06;;;;;;;1.45;1.35;;;12.30;79.60;;;11.72;62.66;94279.16;5076806;28;20285;-81
2020/12/24 05:54:37;;;;;;;1.45;1.35;;;12.30;79.70;;;11.68;62.85;94275.34;5061825;28;20214;-81
2020/12/24 05:57:04;;;;;;;2.13;1.30;;;12.30;79.70;;;11.69;62.75;94288.28;5060197;28;20603;-81
2020/12/24 05:59:33;;;;;;;1.42;1.33;;;12.30;79.70;;;11.65;62.60;94291.53;5060448;28;20217;-81
2020/12/24 06:02:13;;;;;;;1.50;1.40;;;12.20;79.70;;;11.65;62.67;94284.44;5059649;28;20198;-81
2020/12/24 06:04:45;;;;;;;1.83;1.63;;;12.20;79.70;;;11.62;62.75;94290.16;5094873;28;20695;-81
2020/12/24 06:07:18;;;;;;;1.70;1.60;;;12.30;79.80;;;11.58;62.96;94291.56;5089033;28;20217;-80
2020/12/24 06:09:50;;;;;;;1.52;1.40;;;12.20;79.80;;;11.57;62.87;94286.53;5070888;28;20325;-81
2020/12/24 06:12:23;;;;;;;1.65;1.55;;;12.10;79.80;;;11.51;63.04;94283.75;5081450;28;20209;-80
2020/12/24 06:14:53;;;;;;;1.58;1.40;;;12.10;79.80;;;11.48;63.11;94286.78;5056109;28;20221;-81
2020/12/24 06:17:23;;;;;;;1.70;1.60;;;12.10;79.90;;;11.45;63.20;94294.28;5072813;28;20205;-81
2020/12/24 06:19:50;;;;;;;2.55;2.13;;;12.20;79.90;;;11.41;63.41;94290.50;5059463;28;20210;-80
2020/12/24 06:22:18;;;;;;;4.32;2.10;;;12.10;79.90;;;11.37;63.35;94285.66;5075683;28;20226;-80
2020/12/24 06:24:56;;;;;;;1.52;1.42;;;12.00;79.90;;;11.33;63.48;94291.56;5075484;28;20238;-81
2020/12/24 06:27:41;;;;;;;2.20;2.00;;;12.00;80.10;;;11.28;63.37;94288.75;5059644;28;20607;-81
2020/12/24 06:30:15;;;;;;;1.80;1.70;;;12.00;80.10;;;11.24;63.70;94290.97;5075060;28;20222;-81
2020/12/24 06:32:49;;;;;;;2.10;1.70;;;12.00;80.10;;;11.19;63.65;94289.00;5043846;28;20193;-81
2020/12/24 06:35:34;;;;;;;1.73;1.63;;;11.80;80.10;;;11.13;63.91;94294.28;5075960;28;20725;-80
2020/12/24 06:38:04;;;;;;;1.58;1.48;;;11.80;80.20;;;11.08;64.08;94291.50;5092589;28;20273;-80
2020/12/24 06:40:37;;;;;;;1.75;1.65;;;11.90;80.20;;;11.04;63.97;94294.53;5075370;28;20236;-81
2020/12/24 06:43:06;;;;;;;1.65;1.55;;;11.80;80.20;;;11.00;63.87;94295.19;5071929;28;20198;-81
2020/12/24 06:45:38;;;;;;;1.70;1.60;;;11.70;80.20;;;10.98;63.96;94307.69;5072091;28;20219;-81
2020/12/24 06:48:19;;;;;;;1.63;1.52;;;11.70;80.30;;;10.94;64.17;94306.50;5075889;28;20648;-82
2020/12/24 06:51:02;;;;;;;1.67;1.58;;;11.70;80.60;;;10.88;64.12;94308.94;5075848;28;20275;-81
2020/12/24 06:53:36;;;;;;;2.53;2.33;;;11.60;80.50;;;10.83;64.55;94305.34;5075935;28;20594;-81
2020/12/24 06:56:16;;;;;;;2.15;1.80;;;11.60;80.60;;;10.81;64.59;94312.59;5074415;28;20668;-81
2020/12/24 06:58:46;;;;;;;1.75;1.65;;;11.50;80.80;;;10.73;64.69;94313.66;5092462;28;20209;-81
2020/12/24 07:01:27;;;;;;;1.77;1.67;;;11.50;80.60;;;10.73;64.86;94318.91;5073555;28;20198;-80
2020/12/24 07:04:00;;;;;;;2.58;2.38;;;11.40;80.80;;;10.69;65.10;94317.69;5055327;28;20206;-80
2020/12/24 07:06:47;;;;;;;2.30;2.10;;;11.40;81.70;;;10.66;64.85;94307.63;5071320;28;20203;-82
2020/12/24 07:09:20;;;;;;;2.42;1.83;;;11.40;81.20;;;10.66;65.03;94310.25;5076029;28;20244;-82
2020/12/24 07:11:50;;;;;;;1.73;1.63;;;11.40;81.10;;;10.63;64.79;94314.09;5075199;28;20198;-80
2020/12/24 07:14:24;;;;;;;1.83;1.70;;;11.30;81.00;;;10.63;65.00;94321.94;5072994;28;20248;-81
2020/12/24 07:16:52;;;;;;;2.58;1.80;;;11.40;81.40;;;10.60;65.54;94311.88;5090531;28;20206;-81
2020/12/24 07:19:20;;;;;;;2.20;1.70;;;11.30;81.20;;;10.57;65.28;94299.19;5071197;28;20305;-79
2020/12/24 07:21:53;;;;;;;2.10;1.90;;;11.30;81.30;;;10.59;65.38;94309.44;5086987;28;20202;-80
2020/12/24 07:24:30;;;;;;;1.98;1.88;;;11.30;81.60;;;10.57;65.35;94313.09;5058053;28;20218;-81
2020/12/24 07:26:58;;;;;;;1.95;1.60;;;11.20;81.50;;;10.57;65.51;94310.47;5054680;28;20194;-81
2020/12/24 07:29:29;;;;;;;2.03;1.70;;;11.20;81.30;;;10.58;65.32;94316.50;5067514;28;20739;-82
2020/12/24 07:32:02;;;;;;;1.83;1.73;;;11.20;81.40;;;10.59;65.08;94307.63;5056279;28;20203;-83
2020/12/24 07:34:31;;;;;;;2.25;2.05;;;11.20;81.50;;;10.60;65.19;94324.19;5058263;28;20267;-82
2020/12/24 07:36:58;;;;;;;1.80;1.70;;;11.20;81.50;;;10.61;65.23;94320.53;5074450;28;20226;-81
2020/12/24 07:39:25;;;;;;;2.20;2.00;;;11.20;81.50;;;10.58;66.14;94327.00;5058168;28;20777;-81
2020/12/24 07:41:52;;;;;;;2.25;2.05;;;11.20;81.70;;;10.57;66.35;94320.16;5074451;28;20190;-80
2020/12/24 07:44:23;;;;;;;3.05;2.28;;;11.20;81.70;;;10.52;66.09;94312.09;5074546;28;20219;-81
2020/12/24 07:46:53;;;;;;;2.60;2.40;;;11.20;81.90;;;10.51;66.43;94323.56;5074868;28;20198;-81
2020/12/24 07:49:20;;;;;;;3.17;2.30;;;11.30;82.00;;;10.42;66.63;94312.50;5074218;28;20234;-81
2020/12/24 07:51:54;;;;;;;2.40;2.20;;;11.10;82.00;;;10.39;66.74;94321.59;5074592;28;20293;-81
2020/12/24 07:54:28;;;;;;;2.25;2.03;;;11.20;82.20;;;10.34;66.85;94292.53;5071277;28;20210;-82
2020/12/24 07:56:55;;;;;;;2.17;1.98;;;11.10;82.00;;;10.31;67.17;94307.88;5066723;28;20210;-81
2020/12/24 07:59:24;;;;;;;2.03;1.80;;;11.10;82.20;;;10.30;66.59;94314.13;5048595;28;20242;-81
2020/12/24 08:01:51;;;;;;;2.10;1.90;;;11.20;82.30;;;10.28;67.10;94316.97;5049823;28;20217;-81
2020/12/24 08:04:19;;;;;;;2.00;1.80;;;11.10;82.20;;;10.18;67.73;94306.91;5068835;28;20215;-80
2020/12/24 08:06:51;;;;;;;1.80;1.70;;;11.00;82.20;;;10.18;67.52;94325.25;5072928;28;20230;-81
2020/12/24 08:09:20;;;;;;;2.17;1.98;;;11.00;82.50;;;10.16;67.50;94313.34;5064484;28;20254;-81
2020/12/24 08:11:59;;;;;;;1.98;1.77;;;11.00;82.50;;;10.08;67.68;94309.94;5070013;28;20194;-80
2020/12/24 08:14:29;;;;;;;1.90;1.80;;;11.00;82.70;;;10.03;68.13;94317.59;5066475;28;20314;-80
2020/12/24 08:17:27;;;;;;;1.85;1.75;;;10.90;82.60;;;10.00;67.70;94322.44;5052203;28;20291;-80
2020/12/24 08:20:06;;;;;;;1.58;1.48;;;10.80;83.50;;;9.97;67.57;94321.00;5069958;28;20219;-80
2020/12/24 08:22:59;;;;;;;1.55;1.40;;;10.80;82.70;;;9.96;67.59;94322.03;5054777;28;20199;-80
2020/12/24 08:25:27;;;;;;;1.58;1.48;;;10.80;82.80;;;9.95;67.78;94317.81;5054597;28;20244;-80
2020/12/24 08:27:54;;;;;;;3.72;1.50;;;10.80;82.60;;;9.92;67.68;94303.28;5056318;28;20194;-80
2020/12/24 08:30:22;;;;;;;1.55;1.38;;;10.80;82.70;;;9.94;67.32;94314.34;5072553;28;20237;-80
2020/12/24 08:32:50;;;;;;;1.70;1.60;;;10.80;82.70;;;9.94;67.56;94319.59;5090303;28;20203;-82
2020/12/24 08:35:16;;;;;;;1.88;1.77;;;10.70;82.60;;;9.92;67.44;94313.78;5076864;28;20259;-81
2020/12/24 08:37:43;;;;;;;2.35;1.63;;;10.70;82.60;;;9.93;67.44;94307.50;5093441;28;20234;-81
2020/12/24 08:40:23;;;;;;;1.45;1.35;;;10.60;82.50;;;9.86;67.30;94298.88;5061749;28;20214;-81
2020/12/24 08:42:58;;;;;;;1.75;1.65;;;10.60;82.60;;;9.88;66.95;94304.69;5094875;28;20280;-82
2020/12/24 08:45:25;;;;;;;1.90;1.70;;;10.70;82.60;;;9.90;67.46;94307.13;5061124;28;20218;-81
2020/12/24 08:47:52;;;;;;;2.00;1.40;;;10.60;82.50;;;9.91;67.16;94306.91;5061411;28;20256;-81
2020/12/24 08:50:33;;;;;;;1.98;1.77;;;10.60;82.50;;;9.90;67.22;94307.13;5077980;28;20238;-81
2020/12/24 08:53:01;;;;;;;1.58;1.48;;;10.60;82.70;;;9.87;67.26;94310.94;5069412;28;20225;-78
2020/12/24 08:55:28;;;;;;;1.60;1.50;;;10.60;82.50;;;9.89;67.24;94316.78;5072264;28;20218;-79
2020/12/24 08:57:55;;;;;;;1.98;1.77;;;10.60;82.60;;;9.89;67.07;94311.53;5058823;28;20219;-80
2020/12/24 09:00:25;;;;;;;2.13;1.92;;;10.70;82.70;;;9.90;67.19;94312.38;5089727;28;20242;-82
2020/12/24 09:02:52;;;;;;;2.70;1.80;;;10.60;83.40;;;9.89;67.34;94308.94;5051864;28;20199;-81
2020/12/24 09:05:24;;;;;;;1.95;1.75;;;10.60;82.60;;;9.89;67.06;94316.78;5075373;28;20295;-78
2020/12/24 09:07:52;;;;;;;1.75;1.60;;;10.60;82.70;;;9.90;67.39;94313.16;5081565;28;20663;-80
2020/12/24 09:10:28;;;;;;;1.80;1.70;;;10.60;82.60;;;9.92;66.74;94315.56;5065911;28;20227;-81
2020/12/24 09:13:01;;;;;;;1.58;1.40;;;10.50;82.80;;;9.90;66.74;94307.13;5080311;28;20206;-78
2020/12/24 09:15:29;;;;;;;1.92;1.60;;;10.60;82.70;;;9.90;67.01;94315.78;5059545;28;20222;-79
2020/12/24 09:17:58;;;;;;;1.30;1.20;;;10.60;82.50;;;9.91;67.01;94311.34;5073871;28;20623;-79
2020/12/24 09:20:28;;;;;;;1.83;1.33;;;10.60;82.50;;;9.92;66.92;94310.34;5060023;28;20214;-79
2020/12/24 09:23:01;;;;;;;1.73;1.40;;;10.60;83.40;;;9.92;66.77;94298.06;5085220;28;20279;-80
2020/12/24 09:25:41;;;;;;;1.30;1.20;;;10.60;82.60;;;9.90;66.52;94300.06;5079511;28;20547;-79
2020/12/24 09:28:29;;;;;;;1.00;1.00;;;10.60;82.60;;;9.90;66.71;94300.06;5064746;28;20252;-78
2020/12/24 09:31:00;;;;;;;1.00;1.00;;;10.70;82.70;;;9.88;66.88;94294.22;5083811;28;20226;-78
2020/12/24 09:33:28;;;;;;;1.23;1.13;;;10.60;82.50;;;9.87;66.77;94287.34;5074600;28;20215;-80
2020/12/24 09:35:55;;;;;;;1.10;1.10;;;10.60;82.50;;;9.86;66.85;94295.44;5073484;28;20314;-79
2020/12/24 09:38:23;;;;;;;1.05;1.05;;;10.60;82.40;;;9.85;66.73;94299.88;5087096;28;20191;-80
2020/12/24 09:40:50;;;;;;;1.17;1.08;;;10.60;82.40;;;9.83;66.69;94286.16;5067421;28;20218;-79
2020/12/24 09:43:17;;;;;;;1.05;1.02;;;10.50;82.40;;;9.84;66.76;94287.78;5057695;28;20195;-79
2020/12/24 09:45:44;;;;;;;1.23;1.15;;;10.50;82.40;;;9.83;66.78;94285.38;5079252;28;20268;-80
2020/12/24 09:48:11;;;;;;;1.13;1.02;;;10.60;82.40;;;9.83;66.77;94280.94;5095211;28;20205;-80
2020/12/24 09:50:40;;;;;;;1.00;1.00;;;10.50;82.40;;;9.83;66.62;94282.75;5058832;28;20736;-79
2020/12/24 09:53:06;;;;;;;1.08;1.08;;;10.50;82.30;;;9.81;66.84;94263.81;5063993;28;20195;-79
2020/12/24 09:55:34;;;;;;;1.05;1.05;;;10.60;82.40;;;9.80;66.29;94260.38;5074472;28;20227;-79
2020/12/24 09:58:00;;;;;;;0.90;0.90;;;10.50;82.40;;;9.85;66.44;94265.00;5070291;28;20202;-81
2020/12/24 10:00:28;;;;;;;0.98;0.98;;;10.50;82.50;;;9.84;66.58;94277.31;5076677;28;20227;-80
2020/12/24 10:02:55;;;;;;;1.00;1.00;;;10.50;82.40;;;9.80;66.63;94273.47;5073788;28;20581;-79
2020/12/24 10:05:22;;;;;;;0.85;0.85;;;10.50;82.30;;;9.80;66.79;94264.81;5068733;28;20236;-80
2020/12/24 10:07:50;;;;;;;1.67;1.15;;;10.50;82.30;;;9.81;66.70;94263.81;5075996;28;20199;-79
2020/12/24 10:10:17;;;;;;;1.10;1.10;;;10.40;82.20;;;9.77;66.37;94256.34;5074358;28;20663;-80
2020/12/24 10:12:44;;;;;;;1.00;1.00;;;10.50;83.00;;;9.75;66.46;94234.81;5059931;28;20297;-78
2020/12/24 10:15:11;;;;;;;0.80;0.80;;;10.40;82.20;;;9.73;66.31;94222.94;5070740;28;20693;-78
2020/12/24 10:17:37;;;;;;;0.90;0.90;;;10.40;82.10;;;9.74;66.36;94211.41;5073562;28;20220;-78
2020/12/24 10:20:04;;;;;;;0.90;0.90;;;10.40;82.20;;;9.73;66.51;94196.75;5075031;28;20322;-79
2020/12/24 10:22:31;;;;;;;0.88;0.88;;;10.40;82.30;;;9.79;66.28;94206.41;5092808;28;20213;-78
2020/12/24 10:24:58;;;;;;;1.00;1.00;;;10.40;82.40;;;9.83;66.22;94204.19;5076124;28;20571;-80
2020/12/24 10:27:25;;;;;;;0.90;0.90;;;10.40;82.30;;;9.77;66.27;94196.09;5075579;28;20663;-80
2020/12/24 10:29:52;;;;;;;1.15;1.05;;;10.40;82.30;;;9.83;66.26;94212.84;5092609;28;20722;-79